createdAt,value
2018-09-20T00:02:05.188Z,53.75
2018-09-20T00:04:34.164Z,53.73
2018-09-20T00:07:03.074Z,54.12
2018-09-20T00:09:32.037Z,53.76
2018-09-20T00:12:00.965Z,53.83
2018-09-20T00:14:29.922Z,53.54
2018-09-20T00:16:58.847Z,53.87
2018-09-20T00:19:27.793Z,54.01
2018-09-20T00:21:56.732Z,54.23
2018-09-20T00:24:25.666Z,54.36
2018-09-20T00:26:54.598Z,55.31
2018-09-20T00:29:23.566Z,55.75
2018-09-20T00:31:52.638Z,56.81
2018-09-20T00:34:21.627Z,55.53
2018-09-20T00:36:50.593Z,57.07
2018-09-20T00:39:19.534Z,56.48
2018-09-20T00:41:48.530Z,55.80
2018-09-20T00:44:17.474Z,55.75
2018-09-20T00:46:46.459Z,56.61
2018-09-20T00:49:15.370Z,55.60
2018-09-20T00:51:44.325Z,57.70
2018-09-20T00:54:13.257Z,57.25
2018-09-20T00:56:42.257Z,58.67
2018-09-20T00:59:11.210Z,59.25
2018-09-20T01:01:40.191Z,59.59
2018-09-20T01:04:09.128Z,60.14
2018-09-20T01:06:38.116Z,59.53
2018-09-20T01:09:10.132Z,59.01
2018-09-20T01:11:39.376Z,59.51
2018-09-20T01:14:08.366Z,59.51
2018-09-20T01:16:37.398Z,60.09
2018-09-20T01:19:06.386Z,59.04
2018-09-20T01:21:35.355Z,60.29
2018-09-20T01:24:04.297Z,62.59
2018-09-20T01:26:33.274Z,61.37
2018-09-20T01:29:02.175Z,60.51
2018-09-20T01:31:31.165Z,60.80
2018-09-20T01:34:00.075Z,59.65
2018-09-20T01:36:29.026Z,60.26
2018-09-20T01:38:57.938Z,62.62
2018-09-20T01:41:26.883Z,62.48
2018-09-20T01:43:55.784Z,60.00
2018-09-20T01:46:24.734Z,60.89
2018-09-20T01:48:53.616Z,62.19
2018-09-20T01:51:22.566Z,61.10
2018-09-20T01:53:51.446Z,60.42
2018-09-20T01:56:20.390Z,60.00
2018-09-20T01:58:49.306Z,60.72
2018-09-20T02:01:18.286Z,63.07
2018-09-20T02:03:47.217Z,61.89
2018-09-20T02:06:16.178Z,60.56
2018-09-20T02:08:45.166Z,60.94
2018-09-20T02:11:14.107Z,60.12
2018-09-20T02:13:43.006Z,60.04
2018-09-20T02:16:11.985Z,60.01
2018-09-20T02:18:40.922Z,60.00
2018-09-20T02:21:09.893Z,58.86
2018-09-20T02:23:38.806Z,59.73
2018-09-20T02:26:07.746Z,59.26
2018-09-20T02:28:36.653Z,59.54
2018-09-20T02:31:05.643Z,59.31
2018-09-20T02:33:34.590Z,60.19
2018-09-20T02:36:03.526Z,60.05
2018-09-20T02:38:32.538Z,59.21
2018-09-20T02:41:01.474Z,60.37
2018-09-20T02:43:30.374Z,60.93
2018-09-20T02:45:59.334Z,60.22
2018-09-20T02:48:28.263Z,59.33
2018-09-20T02:50:57.195Z,58.56
2018-09-20T02:53:26.118Z,58.52
2018-09-20T02:55:55.117Z,59.35
2018-09-20T02:58:24.006Z,60.75
2018-09-20T03:00:52.924Z,60.21
2018-09-20T03:03:21.879Z,59.15
2018-09-20T03:05:50.794Z,59.27
2018-09-20T03:08:19.756Z,59.11
2018-09-20T03:10:48.654Z,59.30
2018-09-20T03:13:17.588Z,59.04
2018-09-20T03:15:46.496Z,58.79
2018-09-20T03:18:15.430Z,59.79
2018-09-20T03:20:44.320Z,59.46
2018-09-20T03:23:13.396Z,58.87
2018-09-20T03:25:42.281Z,59.31
2018-09-20T03:28:11.226Z,59.58
2018-09-20T03:30:40.462Z,59.19
2018-09-20T03:33:09.314Z,59.75
2018-09-20T03:35:38.263Z,59.08
2018-09-20T03:38:07.247Z,59.68
2018-09-20T03:40:36.150Z,60.21
2018-09-20T03:43:05.118Z,60.82
2018-09-20T03:45:34.065Z,60.04
2018-09-20T03:48:03.022Z,61.23
2018-09-20T03:50:31.942Z,61.22
2018-09-20T03:53:00.936Z,60.50
2018-09-20T03:55:29.896Z,60.53
2018-09-20T03:57:58.852Z,60.17
2018-09-20T04:00:27.788Z,61.48
2018-09-20T04:02:56.746Z,61.50
2018-09-20T04:05:25.741Z,62.30
2018-09-20T04:07:54.715Z,60.76
2018-09-20T04:10:23.636Z,60.89
2018-09-20T04:12:52.709Z,62.42
2018-09-20T04:15:21.626Z,62.27
2018-09-20T04:17:50.634Z,61.85
2018-09-20T04:20:19.565Z,62.39
2018-09-20T04:22:48.457Z,64.90
2018-09-20T04:25:17.431Z,64.09
2018-09-20T04:27:46.425Z,66.47
2018-09-20T04:30:15.398Z,64.76
2018-09-20T04:32:44.301Z,65.82
2018-09-20T04:35:13.225Z,68.22
2018-09-20T04:37:42.707Z,68.38
2018-09-20T04:40:11.702Z,66.82
2018-09-20T04:42:40.597Z,65.39
2018-09-20T04:45:09.639Z,66.32
2018-09-20T04:47:38.594Z,66.75
2018-09-20T04:50:08.086Z,66.88
2018-09-20T04:52:37.191Z,66.24
2018-09-20T04:55:06.851Z,66.31
2018-09-20T04:57:35.787Z,64.95
2018-09-20T05:00:04.786Z,66.07
2018-09-20T05:02:33.974Z,67.10
2018-09-20T05:05:02.926Z,66.25
2018-09-20T05:07:31.828Z,66.12
2018-09-20T05:10:00.777Z,67.72
2018-09-20T05:12:29.685Z,66.68
2018-09-20T05:14:58.666Z,68.49
2018-09-20T05:17:27.574Z,70.68
2018-09-20T05:19:56.515Z,71.21
2018-09-20T05:22:25.535Z,69.81
2018-09-20T05:24:54.473Z,69.66
2018-09-20T05:27:23.367Z,67.67
2018-09-20T05:29:52.301Z,67.23
2018-09-20T05:32:21.216Z,67.29
2018-09-20T05:34:50.277Z,65.63
2018-09-20T05:37:19.218Z,67.69
2018-09-20T05:39:48.194Z,67.20
2018-09-20T05:42:17.111Z,65.76
2018-09-20T05:44:46.135Z,65.20
2018-09-20T05:47:15.203Z,65.38
2018-09-20T05:49:44.134Z,64.77
2018-09-20T05:52:13.131Z,65.83
2018-09-20T05:54:42.081Z,65.98
2018-09-20T05:57:11.037Z,65.40
2018-09-20T05:59:39.954Z,66.24
2018-09-20T06:02:08.949Z,68.81
2018-09-20T06:04:37.881Z,70.86
2018-09-20T06:07:06.844Z,70.65
2018-09-20T06:09:35.787Z,70.48
2018-09-20T06:12:04.763Z,69.68
2018-09-20T06:14:33.707Z,68.29
2018-09-20T06:17:02.695Z,66.85
2018-09-20T06:19:31.620Z,65.35
2018-09-20T06:22:00.578Z,64.65
2018-09-20T06:25:00.922Z,64.75
2018-09-20T06:27:29.920Z,65.00
2018-09-20T06:29:58.866Z,63.30
2018-09-20T06:32:27.917Z,64.27
2018-09-20T06:34:56.901Z,62.67
2018-09-20T06:37:25.827Z,64.51
2018-09-20T06:39:54.748Z,64.96
2018-09-20T06:42:23.716Z,65.13
2018-09-20T06:44:52.709Z,64.92
2018-09-20T06:47:21.670Z,63.82
2018-09-20T06:49:50.607Z,62.24
2018-09-20T06:52:19.590Z,61.92
2018-09-20T06:54:48.527Z,62.17
2018-09-20T06:57:17.482Z,62.82
2018-09-20T06:59:46.526Z,62.47
2018-09-20T07:02:15.500Z,61.37
2018-09-20T07:04:44.430Z,59.44
2018-09-20T07:07:13.447Z,58.68
2018-09-20T07:09:42.426Z,59.91
2018-09-20T07:12:11.396Z,61.20
2018-09-20T07:14:40.306Z,59.90
2018-09-20T07:17:09.282Z,58.11
2018-09-20T07:19:38.238Z,58.79
2018-09-20T07:22:07.201Z,59.58
2018-09-20T07:24:36.122Z,57.01
2018-09-20T07:27:05.155Z,56.07
2018-09-20T07:29:34.099Z,56.69
2018-09-20T07:32:03.205Z,56.83
2018-09-20T07:34:32.185Z,56.50
2018-09-20T07:37:01.237Z,55.02
2018-09-20T07:39:30.183Z,53.86
2018-09-20T07:41:59.137Z,53.84
2018-09-20T07:44:28.041Z,52.67
2018-09-20T07:46:57.027Z,51.33
2018-09-20T07:49:25.966Z,50.87
2018-09-20T07:51:54.961Z,51.19
2018-09-20T07:54:23.922Z,50.73
2018-09-20T07:56:52.944Z,50.41
2018-09-20T07:59:21.941Z,50.31
2018-09-20T08:01:50.950Z,50.12
2018-09-20T08:04:19.931Z,50.55
2018-09-20T08:06:48.957Z,49.62
2018-09-20T08:09:17.921Z,50.48
2018-09-20T08:11:46.849Z,50.83
2018-09-20T08:14:15.848Z,49.35
2018-09-20T08:16:44.764Z,50.55
2018-09-20T08:19:13.727Z,50.82
2018-09-20T08:21:42.760Z,49.53
2018-09-20T08:24:11.687Z,49.19
2018-09-20T08:26:40.622Z,47.70
2018-09-20T08:29:09.598Z,47.75
2018-09-20T08:31:38.510Z,48.43
2018-09-20T08:34:07.693Z,48.24
2018-09-20T08:36:36.585Z,46.88
2018-09-20T08:39:08.895Z,45.00
2018-09-20T08:41:38.268Z,43.83
2018-09-20T08:44:08.018Z,44.55
2018-09-20T08:46:36.894Z,43.22
2018-09-20T08:49:05.841Z,42.65
2018-09-20T08:51:34.810Z,43.62
2018-09-20T08:54:03.738Z,43.27
2018-09-20T08:56:32.629Z,41.81
2018-09-20T08:59:01.594Z,42.61
2018-09-20T09:01:30.529Z,43.75
2018-09-20T09:03:59.489Z,41.88
2018-09-20T09:06:28.365Z,43.95
2018-09-20T09:08:57.390Z,41.69
2018-09-20T09:11:26.278Z,41.94
2018-09-20T09:13:55.212Z,42.66
2018-09-20T09:16:24.120Z,41.18
2018-09-20T09:18:53.110Z,40.75
2018-09-20T09:21:22.126Z,41.44
2018-09-20T09:23:51.046Z,39.09
2018-09-20T09:26:19.938Z,38.99
2018-09-20T09:28:49.000Z,38.83
2018-09-20T09:31:17.938Z,37.62
2018-09-20T09:33:47.064Z,38.97
2018-09-20T09:36:15.957Z,39.15
2018-09-20T09:38:44.900Z,37.57
2018-09-20T09:41:13.805Z,38.54
2018-09-20T09:43:42.763Z,36.58
2018-09-20T09:46:11.692Z,36.74
2018-09-20T09:48:40.929Z,35.53
2018-09-20T09:51:10.061Z,37.05
2018-09-20T09:53:39.090Z,36.10
2018-09-20T09:56:08.010Z,36.32
2018-09-20T09:58:36.898Z,35.24
2018-09-20T10:01:05.851Z,34.70
2018-09-20T10:03:34.717Z,34.83
2018-09-20T10:06:03.690Z,32.79
2018-09-20T10:08:32.581Z,32.10
2018-09-20T10:11:01.618Z,33.00
2018-09-20T10:13:30.604Z,33.32
2018-09-20T10:15:59.517Z,33.17
2018-09-20T10:18:28.405Z,33.35
2018-09-20T10:20:57.338Z,34.52
2018-09-20T10:23:26.278Z,33.16
2018-09-20T10:25:55.218Z,32.46
2018-09-20T10:28:24.120Z,32.76
2018-09-20T10:30:53.158Z,32.55
2018-09-20T10:33:22.156Z,32.19
2018-09-20T10:35:51.149Z,31.05
2018-09-20T10:38:20.107Z,30.70
2018-09-20T10:40:49.089Z,31.04
2018-09-20T10:43:18.030Z,31.33
2018-09-20T10:45:46.977Z,32.04
2018-09-20T10:48:15.902Z,27.54
2018-09-20T10:50:44.873Z,28.00
2018-09-20T10:53:13.804Z,27.91
2018-09-20T10:55:42.774Z,28.32
2018-09-20T10:58:11.706Z,27.04
2018-09-20T11:00:40.690Z,28.08
2018-09-20T11:03:09.639Z,27.39
2018-09-20T11:05:38.610Z,27.18
2018-09-20T11:08:07.548Z,25.54
2018-09-20T11:10:36.544Z,28.87
2018-09-20T11:13:05.488Z,28.54
2018-09-20T11:15:34.486Z,29.50
2018-09-20T11:18:03.422Z,27.71
2018-09-20T11:20:32.425Z,29.29
2018-09-20T11:23:01.390Z,27.32
2018-09-20T11:25:30.302Z,24.46
2018-09-20T11:27:59.280Z,23.63
2018-09-20T11:30:28.232Z,23.34
2018-09-20T11:32:57.214Z,23.93
2018-09-20T11:35:26.172Z,23.79
2018-09-20T11:37:55.230Z,22.22
2018-09-20T11:40:24.254Z,22.36
2018-09-20T11:42:53.226Z,21.85
2018-09-20T11:45:22.160Z,21.31
2018-09-20T11:47:51.174Z,22.19
2018-09-20T11:50:20.191Z,21.93
2018-09-20T11:52:49.186Z,22.26
2018-09-20T11:55:18.114Z,21.19
2018-09-20T11:57:47.371Z,22.59
2018-09-20T12:00:20.189Z,22.27
2018-09-20T12:02:49.785Z,21.61
2018-09-20T12:05:18.724Z,23.37
2018-09-20T12:07:47.754Z,22.83
2018-09-20T12:10:17.206Z,19.38
2018-09-20T12:12:46.174Z,19.71
2018-09-20T12:15:15.215Z,19.73
2018-09-20T12:17:44.258Z,21.40
2018-09-20T12:20:13.228Z,21.42
2018-09-20T12:22:42.213Z,20.83
2018-09-20T12:25:11.141Z,20.35
2018-09-20T12:27:40.146Z,19.27
2018-09-20T12:30:09.161Z,19.13
2018-09-20T12:32:38.168Z,19.59
2018-09-20T12:35:07.122Z,20.44
2018-09-20T12:37:36.681Z,21.18
2018-09-20T12:40:06.710Z,20.20
2018-09-20T12:42:35.690Z,19.99
2018-09-20T12:45:04.636Z,19.85
2018-09-20T12:47:34.111Z,21.51
2018-09-20T12:50:03.066Z,21.05
2018-09-20T12:52:32.062Z,20.72
2018-09-20T12:55:01.017Z,19.49
2018-09-20T12:57:30.028Z,19.38
2018-09-20T12:59:58.953Z,19.21
2018-09-20T13:02:27.937Z,19.06
2018-09-20T13:04:56.915Z,18.71
2018-09-20T13:07:25.947Z,19.14
2018-09-20T13:09:54.906Z,19.05
2018-09-20T13:12:23.894Z,20.45
2018-09-20T13:14:52.854Z,20.18
2018-09-20T13:17:21.857Z,21.40
2018-09-20T13:19:50.840Z,22.20
2018-09-20T13:22:19.846Z,20.12
2018-09-20T13:24:48.778Z,22.02
2018-09-20T13:27:17.710Z,21.10
2018-09-20T13:29:46.711Z,22.02
2018-09-20T13:32:15.696Z,20.90
2018-09-20T13:34:44.657Z,19.62
2018-09-20T13:37:13.667Z,19.85
2018-09-20T13:39:42.638Z,19.26
2018-09-20T13:42:11.625Z,22.47
2018-09-20T13:44:40.649Z,20.58
2018-09-20T13:47:09.582Z,20.11
2018-09-20T13:49:38.566Z,19.88
2018-09-20T13:52:08.035Z,19.46
2018-09-20T13:54:36.997Z,19.16
2018-09-20T13:57:06.011Z,20.19
2018-09-20T13:59:35.026Z,19.61
2018-09-20T14:02:03.966Z,20.67
2018-09-20T14:04:32.954Z,19.74
2018-09-20T14:07:01.905Z,20.00
2018-09-20T14:09:30.900Z,20.79
2018-09-20T14:11:59.868Z,22.98
2018-09-20T14:14:28.867Z,21.20
2018-09-20T14:16:57.793Z,21.00
2018-09-20T14:19:26.775Z,20.82
2018-09-20T14:21:55.721Z,20.38
2018-09-20T14:24:24.645Z,18.68
2018-09-20T14:26:53.641Z,19.70
2018-09-20T14:29:22.642Z,19.72
2018-09-20T14:31:51.651Z,19.33
2018-09-20T14:34:20.624Z,20.11
2018-09-20T14:36:49.834Z,20.26
2018-09-20T14:39:18.795Z,20.28
2018-09-20T14:41:47.807Z,20.67
2018-09-20T14:44:16.741Z,20.03
2018-09-20T14:46:45.745Z,19.45
2018-09-20T14:49:14.701Z,19.41
2018-09-20T14:51:43.692Z,19.80
2018-09-20T14:54:12.715Z,19.37
2018-09-20T14:56:41.693Z,18.76
2018-09-20T14:59:10.641Z,19.09
2018-09-20T15:01:39.616Z,19.18
2018-09-20T15:04:08.550Z,17.94
2018-09-20T15:06:37.556Z,20.73
2018-09-20T15:09:09.954Z,21.79
2018-09-20T15:11:38.947Z,21.75
2018-09-20T15:14:07.909Z,23.44
2018-09-20T15:16:36.898Z,23.37
2018-09-20T15:19:05.941Z,23.69
2018-09-20T15:21:34.904Z,23.66
2018-09-20T15:24:04.087Z,24.33
2018-09-20T15:26:33.094Z,25.14
2018-09-20T15:29:02.038Z,24.94
2018-09-20T15:31:31.030Z,24.62
2018-09-20T15:33:59.956Z,24.99
2018-09-20T15:36:28.954Z,25.04
2018-09-20T15:38:57.845Z,24.47
2018-09-20T15:41:26.788Z,24.65
2018-09-20T15:43:55.755Z,24.38
2018-09-20T15:46:24.727Z,24.99
2018-09-20T15:48:53.662Z,26.28
2018-09-20T15:51:22.607Z,25.67
2018-09-20T15:53:51.526Z,26.28
2018-09-20T15:56:20.514Z,24.98
2018-09-20T15:58:49.433Z,25.78
2018-09-20T16:01:18.377Z,25.54
2018-09-20T16:03:47.285Z,25.87
2018-09-20T16:06:16.270Z,25.47
2018-09-20T16:08:45.162Z,24.90
2018-09-20T16:11:14.093Z,24.66
2018-09-20T16:13:43.081Z,25.10
2018-09-20T16:16:12.036Z,24.75
2018-09-20T16:18:40.949Z,26.10
2018-09-20T16:21:09.945Z,26.28
2018-09-20T16:23:38.852Z,27.27
2018-09-20T16:26:08.034Z,27.86
2018-09-20T16:28:50.677Z,27.51
2018-09-20T16:31:34.128Z,28.32
2018-09-20T16:38:27.300Z,27.81
2018-09-20T16:40:57.977Z,27.73
2018-09-20T16:43:26.946Z,27.87
2018-09-20T16:45:55.892Z,28.24
2018-09-20T16:48:24.862Z,28.06
2018-09-20T16:50:53.782Z,28.29
2018-09-20T16:53:22.930Z,28.44
2018-09-20T16:55:51.765Z,27.75
2018-09-20T16:58:21.158Z,28.21
2018-09-20T17:00:50.105Z,28.80
2018-09-20T17:03:19.106Z,28.80
2018-09-20T17:05:48.360Z,29.09
2018-09-20T17:08:17.738Z,29.53
2018-09-20T17:10:46.667Z,27.50
2018-09-20T17:13:16.163Z,26.76
2018-09-20T17:15:45.061Z,26.92
2018-09-20T17:18:14.022Z,26.67
2018-09-20T17:20:42.946Z,26.76
2018-09-20T17:23:11.910Z,27.30
2018-09-20T17:25:40.846Z,27.19
2018-09-20T17:28:09.817Z,27.35
2018-09-20T17:30:38.736Z,27.54
2018-09-20T17:33:07.736Z,27.31
2018-09-20T17:35:36.881Z,27.71
2018-09-20T17:38:06.421Z,28.12
2018-09-20T17:40:36.014Z,28.34
2018-09-20T17:43:07.600Z,28.28
2018-09-20T17:45:36.546Z,27.98
2018-09-20T17:48:05.532Z,28.62
2018-09-20T17:50:34.794Z,28.77
2018-09-20T17:53:03.998Z,29.17
2018-09-20T17:55:33.256Z,29.91
2018-09-20T17:58:02.638Z,29.40
2018-09-20T18:00:31.525Z,30.04
2018-09-20T18:03:00.527Z,29.80
2018-09-20T18:05:29.482Z,29.86
2018-09-20T18:07:58.378Z,30.34
2018-09-20T18:10:27.337Z,30.00
2018-09-20T18:12:56.233Z,30.30
2018-09-20T18:15:25.174Z,30.04
2018-09-20T18:17:54.252Z,30.84
2018-09-20T18:20:23.226Z,30.72
2018-09-20T18:22:52.134Z,31.22
2018-09-20T18:25:21.085Z,30.97
2018-09-20T18:27:49.964Z,31.63
2018-09-20T18:30:18.930Z,31.80
2018-09-20T18:32:47.853Z,32.39
2018-09-20T18:35:16.882Z,31.75
2018-09-20T18:37:46.115Z,33.02
2018-09-20T18:40:15.156Z,33.47
2018-09-20T18:42:44.050Z,33.01
2018-09-20T18:45:13.026Z,33.04
2018-09-20T18:47:41.955Z,33.26
2018-09-20T18:50:11.076Z,32.72
2018-09-20T18:52:39.967Z,33.42
2018-09-20T18:55:08.958Z,34.96
2018-09-20T18:57:37.911Z,34.48
2018-09-20T19:00:07.007Z,34.68
2018-09-20T19:02:35.928Z,34.45
2018-09-20T19:05:05.349Z,34.70
2018-09-20T19:07:34.271Z,35.46
2018-09-20T19:10:03.237Z,34.90
2018-09-20T19:12:32.206Z,34.97
2018-09-20T19:15:01.185Z,35.81
2018-09-20T19:17:30.158Z,36.18
2018-09-20T19:19:59.146Z,37.53
2018-09-20T19:22:28.086Z,37.70
2018-09-20T19:24:57.066Z,37.41
2018-09-20T19:27:26.066Z,37.01
2018-09-20T19:29:55.010Z,38.55
2018-09-20T19:32:23.938Z,38.34
2018-09-20T19:34:52.833Z,37.58
2018-09-20T19:37:21.757Z,37.49
2018-09-20T19:39:50.801Z,37.18
2018-09-20T19:42:19.807Z,37.98
2018-09-20T19:44:48.714Z,37.81
2018-09-20T19:47:17.703Z,38.75
2018-09-20T19:49:46.639Z,39.69
2018-09-20T19:52:15.626Z,38.69
2018-09-20T19:54:44.559Z,38.57
2018-09-20T19:57:13.506Z,39.19
2018-09-20T19:59:42.471Z,39.07
2018-09-20T20:02:11.394Z,38.54
2018-09-20T20:04:40.374Z,39.03
2018-09-20T20:07:09.317Z,38.89
2018-09-20T20:09:38.205Z,39.27
2018-09-20T20:12:07.205Z,40.07
2018-09-20T20:14:36.105Z,39.65
2018-09-20T20:17:05.098Z,41.20
2018-09-20T20:19:34.177Z,40.47
2018-09-20T20:22:02.994Z,40.88
2018-09-20T20:24:32.215Z,42.21
2018-09-20T20:27:01.289Z,40.71
2018-09-20T20:29:30.173Z,40.42
2018-09-20T20:31:59.149Z,40.18
2018-09-20T20:34:28.094Z,40.24
2018-09-20T20:36:57.085Z,41.25
2018-09-20T20:39:26.002Z,40.73
2018-09-20T20:41:55.053Z,41.44
2018-09-20T20:44:24.035Z,41.50
2018-09-20T20:46:53.085Z,42.21
2018-09-20T20:49:21.995Z,41.47
2018-09-20T20:51:51.008Z,42.31
2018-09-20T20:54:20.026Z,42.03
2018-09-20T20:56:49.077Z,42.59
2018-09-20T20:59:18.020Z,42.73
2018-09-20T21:01:47.014Z,43.08
2018-09-20T21:04:15.946Z,42.71
2018-09-20T21:06:44.902Z,42.22
2018-09-20T21:09:13.853Z,43.63
2018-09-20T21:11:42.810Z,42.58
2018-09-20T21:14:11.771Z,42.55
2018-09-20T21:16:40.771Z,43.23
2018-09-20T21:19:09.669Z,42.69
2018-09-20T21:21:38.646Z,43.46
2018-09-20T21:24:07.627Z,42.91
2018-09-20T21:26:36.701Z,43.26
2018-09-20T21:29:05.853Z,43.16
2018-09-20T21:31:34.806Z,43.21
2018-09-20T21:34:03.755Z,43.51
2018-09-20T21:36:32.772Z,43.23
2018-09-20T21:39:01.766Z,43.08
2018-09-20T21:41:30.710Z,43.88
2018-09-20T21:43:59.755Z,43.44
2018-09-20T21:46:28.665Z,44.67
2018-09-20T21:48:57.617Z,44.04
2018-09-20T21:51:26.547Z,44.75
2018-09-20T21:53:55.553Z,45.26
2018-09-20T21:56:24.458Z,44.99
2018-09-20T21:58:53.414Z,45.59
2018-09-20T22:01:22.353Z,47.00
2018-09-20T22:03:51.368Z,46.78
2018-09-20T22:06:20.293Z,45.44
2018-09-20T22:08:49.318Z,45.68
2018-09-20T22:11:18.224Z,47.81
2018-09-20T22:13:47.195Z,47.84
2018-09-20T22:16:16.104Z,47.02
2018-09-20T22:18:45.145Z,47.63
2018-09-20T22:21:14.079Z,46.82
2018-09-20T22:23:43.042Z,47.16
2018-09-20T22:26:11.997Z,46.67
2018-09-20T22:28:40.951Z,46.89
2018-09-20T22:31:09.846Z,46.41
2018-09-20T22:33:38.760Z,47.09
2018-09-20T22:36:07.636Z,47.35
2018-09-20T22:38:36.560Z,47.52
2018-09-20T22:41:05.445Z,47.06
2018-09-20T22:43:34.381Z,47.35
2018-09-20T22:46:03.266Z,46.34
2018-09-20T22:48:32.195Z,47.19
2018-09-20T22:51:01.082Z,47.47
2018-09-20T22:53:30.034Z,48.35
2018-09-20T22:55:58.926Z,48.95
2018-09-20T22:58:27.914Z,48.70
2018-09-20T23:00:56.835Z,48.84
2018-09-20T23:03:25.786Z,48.49
2018-09-20T23:05:54.693Z,49.06
2018-09-20T23:08:23.605Z,49.89
2018-09-20T23:10:52.502Z,49.41
2018-09-20T23:13:21.435Z,49.78
2018-09-20T23:15:50.386Z,49.57
2018-09-20T23:18:19.394Z,51.11
2018-09-20T23:20:48.366Z,51.31
2018-09-20T23:23:17.290Z,52.37
2018-09-20T23:25:46.174Z,55.20
2018-09-20T23:28:15.090Z,54.77
2018-09-20T23:30:43.984Z,54.86
2018-09-20T23:33:12.969Z,56.20
2018-09-20T23:35:41.997Z,59.09
2018-09-20T23:38:10.919Z,59.86
2018-09-20T23:40:39.886Z,57.15
2018-09-20T23:43:08.817Z,58.32
2018-09-20T23:45:37.781Z,58.37
2018-09-20T23:48:06.717Z,55.92
2018-09-20T23:50:35.705Z,56.05
2018-09-20T23:53:04.598Z,53.69
2018-09-20T23:55:33.561Z,53.54
2018-09-20T23:58:02.457Z,53.64
